Terminal Aerodrome Forecast
Issued by NWS

Home | Current Version | Previous Version | Text Only | Print | Product List | Glossary On
Versions: 1 2 3 4 5 6 7 8 9 10 11 12 13 14 15
000
FTUS43 KILX 241732
TAFBMI
TAF
KBMI 241732Z 2418/2518 18018G27KT P6SM VCTS SCT025CB BKN060
     FM250000 18016KT P6SM SCT025 BKN060
     FM250500 17018G25KT 5SM -SHRA VCTS BKN020CB
     FM251400 22020G28KT P6SM BKN020=

USA.gov is the U.S. government's official web portal to all federal, state and local government web resources and services.